sensor_id;sensor_type;location;lat;lon;timestamp;P1;durP1;ratioP1;P2;durP2;ratioP2
79124;SDS011;68527;39.470;-0.376;2023-05-07T00:03:54;3.40;;;1.80;;
79124;SDS011;68527;39.470;-0.376;2023-05-07T00:06:19;3.50;;;1.80;;
79124;SDS011;68527;39.470;-0.376;2023-05-07T00:11:10;4.10;;;1.70;;
79124;SDS011;68527;39.470;-0.376;2023-05-07T00:13:36;3.00;;;1.90;;
79124;SDS011;68527;39.470;-0.376;2023-05-07T00:18:28;3.50;;;1.70;;
79124;SDS011;68527;39.470;-0.376;2023-05-07T00:23:19;2.80;;;1.50;;
79124;SDS011;68527;39.470;-0.376;2023-05-07T00:25:44;2.80;;;1.60;;
79124;SDS011;68527;39.470;-0.376;2023-05-07T00:28:10;3.00;;;1.80;;
79124;SDS011;68527;39.470;-0.376;2023-05-07T00:33:01;2.30;;;1.60;;
79124;SDS011;68527;39.470;-0.376;2023-05-07T00:37:53;2.50;;;1.50;;
79124;SDS011;68527;39.470;-0.376;2023-05-07T00:40:18;3.20;;;1.80;;
79124;SDS011;68527;39.470;-0.376;2023-05-07T00:45:15;3.00;;;2.10;;
79124;SDS011;68527;39.470;-0.376;2023-05-07T00:47:41;3.90;;;1.90;;
79124;SDS011;68527;39.470;-0.376;2023-05-07T00:50:07;3.00;;;1.90;;
79124;SDS011;68527;39.470;-0.376;2023-05-07T00:52:34;4.40;;;2.00;;
79124;SDS011;68527;39.470;-0.376;2023-05-07T00:55:02;2.70;;;1.60;;
79124;SDS011;68527;39.470;-0.376;2023-05-07T00:57:32;2.50;;;1.50;;
79124;SDS011;68527;39.470;-0.376;2023-05-07T01:00:05;2.70;;;2.00;;
79124;SDS011;68527;39.470;-0.376;2023-05-07T01:02:33;2.50;;;1.80;;
79124;SDS011;68527;39.470;-0.376;2023-05-07T01:04:59;2.50;;;1.80;;
79124;SDS011;68527;39.470;-0.376;2023-05-07T01:07:25;3.00;;;1.90;;
79124;SDS011;68527;39.470;-0.376;2023-05-07T01:09:51;3.60;;;2.00;;
79124;SDS011;68527;39.470;-0.376;2023-05-07T01:12:17;3.70;;;2.20;;
79124;SDS011;68527;39.470;-0.376;2023-05-07T01:14:43;2.60;;;1.90;;
79124;SDS011;68527;39.470;-0.376;2023-05-07T01:17:09;4.10;;;2.20;;
79124;SDS011;68527;39.470;-0.376;2023-05-07T01:19:34;2.50;;;1.80;;
79124;SDS011;68527;39.470;-0.376;2023-05-07T01:22:02;2.30;;;1.60;;
79124;SDS011;68527;39.470;-0.376;2023-05-07T01:24:33;3.60;;;2.10;;
79124;SDS011;68527;39.470;-0.376;2023-05-07T01:26:58;2.00;;;1.40;;
79124;SDS011;68527;39.470;-0.376;2023-05-07T01:29:26;2.70;;;1.60;;
79124;SDS011;68527;39.470;-0.376;2023-05-07T01:31:52;2.00;;;1.50;;
79124;SDS011;68527;39.470;-0.376;2023-05-07T01:34:18;3.50;;;2.10;;
79124;SDS011;68527;39.470;-0.376;2023-05-07T01:36:44;2.80;;;1.80;;
79124;SDS011;68527;39.470;-0.376;2023-05-07T01:39:10;3.60;;;1.70;;
79124;SDS011;68527;39.470;-0.376;2023-05-07T01:41:36;2.80;;;1.90;;
79124;SDS011;68527;39.470;-0.376;2023-05-07T01:44:02;2.30;;;1.80;;
79124;SDS011;68527;39.470;-0.376;2023-05-07T01:46:29;2.60;;;1.80;;
79124;SDS011;68527;39.470;-0.376;2023-05-07T01:48:56;3.20;;;1.70;;
79124;SDS011;68527;39.470;-0.376;2023-05-07T01:51:22;2.90;;;1.90;;
79124;SDS011;68527;39.470;-0.376;2023-05-07T01:53:48;4.20;;;1.80;;
79124;SDS011;68527;39.470;-0.376;2023-05-07T01:56:16;2.30;;;1.50;;
79124;SDS011;68527;39.470;-0.376;2023-05-07T01:58:44;3.90;;;1.80;;
79124;SDS011;68527;39.470;-0.376;2023-05-07T02:01:11;3.40;;;1.70;;
79124;SDS011;68527;39.470;-0.376;2023-05-07T02:03:37;2.90;;;1.60;;
79124;SDS011;68527;39.470;-0.376;2023-05-07T02:06:03;2.30;;;1.70;;
79124;SDS011;68527;39.470;-0.376;2023-05-07T02:08:29;2.40;;;1.50;;
79124;SDS011;68527;39.470;-0.376;2023-05-07T02:10:55;3.20;;;1.70;;
79124;SDS011;68527;39.470;-0.376;2023-05-07T02:13:20;2.50;;;1.70;;
79124;SDS011;68527;39.470;-0.376;2023-05-07T02:15:47;3.70;;;1.60;;
79124;SDS011;68527;39.470;-0.376;2023-05-07T02:18:15;2.20;;;1.60;;
79124;SDS011;68527;39.470;-0.376;2023-05-07T02:20:41;4.10;;;1.90;;
79124;SDS011;68527;39.470;-0.376;2023-05-07T02:23:07;3.40;;;1.80;;
79124;SDS011;68527;39.470;-0.376;2023-05-07T02:25:32;2.40;;;1.40;;
79124;SDS011;68527;39.470;-0.376;2023-05-07T02:27:58;2.60;;;2.30;;
79124;SDS011;68527;39.470;-0.376;2023-05-07T02:30:24;3.00;;;1.60;;
79124;SDS011;68527;39.470;-0.376;2023-05-07T02:32:50;2.60;;;1.80;;
79124;SDS011;68527;39.470;-0.376;2023-05-07T02:35:15;2.30;;;1.70;;
79124;SDS011;68527;39.470;-0.376;2023-05-07T02:37:41;2.90;;;1.40;;
79124;SDS011;68527;39.470;-0.376;2023-05-07T02:40:07;4.20;;;2.10;;
79124;SDS011;68527;39.470;-0.376;2023-05-07T02:42:34;2.60;;;1.70;;
79124;SDS011;68527;39.470;-0.376;2023-05-07T02:45:00;2.00;;;1.50;;
79124;SDS011;68527;39.470;-0.376;2023-05-07T02:47:25;3.50;;;1.70;;
79124;SDS011;68527;39.470;-0.376;2023-05-07T02:49:54;3.20;;;1.70;;
79124;SDS011;68527;39.470;-0.376;2023-05-07T02:52:20;2.90;;;1.60;;
79124;SDS011;68527;39.470;-0.376;2023-05-07T02:54:46;2.60;;;1.60;;
79124;SDS011;68527;39.470;-0.376;2023-05-07T02:59:37;2.10;;;1.50;;
79124;SDS011;68527;39.470;-0.376;2023-05-07T03:02:03;3.30;;;1.80;;
79124;SDS011;68527;39.470;-0.376;2023-05-07T03:04:28;3.20;;;2.10;;
79124;SDS011;68527;39.470;-0.376;2023-05-07T03:06:54;2.40;;;1.60;;
79124;SDS011;68527;39.470;-0.376;2023-05-07T03:09:19;2.20;;;1.60;;
79124;SDS011;68527;39.470;-0.376;2023-05-07T03:11:45;2.60;;;2.00;;
79124;SDS011;68527;39.470;-0.376;2023-05-07T03:14:11;2.60;;;1.50;;
79124;SDS011;68527;39.470;-0.376;2023-05-07T03:16:37;2.70;;;1.40;;
79124;SDS011;68527;39.470;-0.376;2023-05-07T03:19:03;2.60;;;1.80;;
79124;SDS011;68527;39.470;-0.376;2023-05-07T03:23:54;3.10;;;1.70;;
79124;SDS011;68527;39.470;-0.376;2023-05-07T03:26:19;2.60;;;1.70;;
79124;SDS011;68527;39.470;-0.376;2023-05-07T03:28:45;2.50;;;1.70;;
79124;SDS011;68527;39.470;-0.376;2023-05-07T03:33:38;2.00;;;1.30;;
79124;SDS011;68527;39.470;-0.376;2023-05-07T03:36:14;2.60;;;1.80;;
79124;SDS011;68527;39.470;-0.376;2023-05-07T03:38:40;2.00;;;1.40;;
79124;SDS011;68527;39.470;-0.376;2023-05-07T03:41:05;2.90;;;1.60;;
79124;SDS011;68527;39.470;-0.376;2023-05-07T03:45:56;1.90;;;1.40;;
79124;SDS011;68527;39.470;-0.376;2023-05-07T03:48:22;2.40;;;1.70;;
79124;SDS011;68527;39.470;-0.376;2023-05-07T03:53:13;3.60;;;1.70;;
79124;SDS011;68527;39.470;-0.376;2023-05-07T03:55:38;4.80;;;2.20;;
79124;SDS011;68527;39.470;-0.376;2023-05-07T04:00:29;2.10;;;1.60;;
79124;SDS011;68527;39.470;-0.376;2023-05-07T04:02:58;2.20;;;1.80;;
79124;SDS011;68527;39.470;-0.376;2023-05-07T04:05:24;3.80;;;1.90;;
79124;SDS011;68527;39.470;-0.376;2023-05-07T04:07:50;8.00;;;1.60;;
79124;SDS011;68527;39.470;-0.376;2023-05-07T04:10:16;2.70;;;1.90;;
79124;SDS011;68527;39.470;-0.376;2023-05-07T04:12:41;1.90;;;1.60;;
79124;SDS011;68527;39.470;-0.376;2023-05-07T04:17:33;2.70;;;1.50;;
79124;SDS011;68527;39.470;-0.376;2023-05-07T04:19:58;2.10;;;1.60;;
79124;SDS011;68527;39.470;-0.376;2023-05-07T04:22:24;3.40;;;1.80;;
79124;SDS011;68527;39.470;-0.376;2023-05-07T04:24:50;2.10;;;1.60;;
79124;SDS011;68527;39.470;-0.376;2023-05-07T04:27:16;3.20;;;1.60;;
79124;SDS011;68527;39.470;-0.376;2023-05-07T04:29:42;2.40;;;1.50;;
79124;SDS011;68527;39.470;-0.376;2023-05-07T04:32:09;3.30;;;1.50;;
79124;SDS011;68527;39.470;-0.376;2023-05-07T04:34:34;3.00;;;1.60;;
79124;SDS011;68527;39.470;-0.376;2023-05-07T04:37:00;2.10;;;1.40;;
79124;SDS011;68527;39.470;-0.376;2023-05-07T04:39:26;2.50;;;1.80;;
79124;SDS011;68527;39.470;-0.376;2023-05-07T04:41:52;2.20;;;1.30;;
79124;SDS011;68527;39.470;-0.376;2023-05-07T04:46:43;3.40;;;1.30;;
79124;SDS011;68527;39.470;-0.376;2023-05-07T04:51:34;1.50;;;1.20;;
79124;SDS011;68527;39.470;-0.376;2023-05-07T04:54:00;3.50;;;1.50;;
79124;SDS011;68527;39.470;-0.376;2023-05-07T04:58:52;2.30;;;1.50;;
79124;SDS011;68527;39.470;-0.376;2023-05-07T05:01:18;2.30;;;1.70;;
79124;SDS011;68527;39.470;-0.376;2023-05-07T05:03:43;2.70;;;1.80;;
79124;SDS011;68527;39.470;-0.376;2023-05-07T05:08:34;3.10;;;1.90;;
79124;SDS011;68527;39.470;-0.376;2023-05-07T05:13:26;3.20;;;1.70;;
79124;SDS011;68527;39.470;-0.376;2023-05-07T05:15:51;2.20;;;1.60;;
79124;SDS011;68527;39.470;-0.376;2023-05-07T05:20:42;2.80;;;1.40;;
79124;SDS011;68527;39.470;-0.376;2023-05-07T05:23:08;2.20;;;1.60;;
79124;SDS011;68527;39.470;-0.376;2023-05-07T05:27:59;2.50;;;1.50;;
79124;SDS011;68527;39.470;-0.376;2023-05-07T05:30:26;5.40;;;1.80;;
79124;SDS011;68527;39.470;-0.376;2023-05-07T05:32:52;3.80;;;1.90;;
79124;SDS011;68527;39.470;-0.376;2023-05-07T05:37:43;4.20;;;1.80;;
79124;SDS011;68527;39.470;-0.376;2023-05-07T05:42:34;3.50;;;1.70;;
79124;SDS011;68527;39.470;-0.376;2023-05-07T05:47:25;3.60;;;1.90;;
79124;SDS011;68527;39.470;-0.376;2023-05-07T05:49:50;5.20;;;1.80;;
79124;SDS011;68527;39.470;-0.376;2023-05-07T05:52:16;3.50;;;2.10;;
79124;SDS011;68527;39.470;-0.376;2023-05-07T05:54:42;1.90;;;1.40;;
79124;SDS011;68527;39.470;-0.376;2023-05-07T05:59:33;3.90;;;1.60;;
79124;SDS011;68527;39.470;-0.376;2023-05-07T06:04:23;2.00;;;1.30;;
79124;SDS011;68527;39.470;-0.376;2023-05-07T06:06:49;4.00;;;1.60;;
79124;SDS011;68527;39.470;-0.376;2023-05-07T06:09:15;3.10;;;1.80;;
79124;SDS011;68527;39.470;-0.376;2023-05-07T06:11:41;2.20;;;1.40;;
79124;SDS011;68527;39.470;-0.376;2023-05-07T06:14:06;3.70;;;1.80;;
79124;SDS011;68527;39.470;-0.376;2023-05-07T06:18:57;2.10;;;1.50;;
79124;SDS011;68527;39.470;-0.376;2023-05-07T06:21:23;2.60;;;1.70;;
79124;SDS011;68527;39.470;-0.376;2023-05-07T06:26:14;2.60;;;1.80;;
79124;SDS011;68527;39.470;-0.376;2023-05-07T06:28:40;2.90;;;1.70;;
79124;SDS011;68527;39.470;-0.376;2023-05-07T06:33:38;2.30;;;1.60;;
79124;SDS011;68527;39.470;-0.376;2023-05-07T06:36:04;3.50;;;1.60;;
79124;SDS011;68527;39.470;-0.376;2023-05-07T06:38:30;2.30;;;1.50;;
79124;SDS011;68527;39.470;-0.376;2023-05-07T06:40:55;2.50;;;1.70;;
79124;SDS011;68527;39.470;-0.376;2023-05-07T06:43:22;2.90;;;1.80;;
79124;SDS011;68527;39.470;-0.376;2023-05-07T06:45:47;3.00;;;1.80;;
79124;SDS011;68527;39.470;-0.376;2023-05-07T06:48:13;2.70;;;2.00;;
79124;SDS011;68527;39.470;-0.376;2023-05-07T06:50:39;2.50;;;1.70;;
79124;SDS011;68527;39.470;-0.376;2023-05-07T06:55:30;2.20;;;1.80;;
79124;SDS011;68527;39.470;-0.376;2023-05-07T06:57:55;3.00;;;1.90;;
79124;SDS011;68527;39.470;-0.376;2023-05-07T07:00:26;2.50;;;1.70;;
79124;SDS011;68527;39.470;-0.376;2023-05-07T07:02:52;2.80;;;1.70;;
79124;SDS011;68527;39.470;-0.376;2023-05-07T07:05:18;2.80;;;1.70;;
79124;SDS011;68527;39.470;-0.376;2023-05-07T07:07:44;2.40;;;1.80;;
79124;SDS011;68527;39.470;-0.376;2023-05-07T07:10:09;2.30;;;1.50;;
79124;SDS011;68527;39.470;-0.376;2023-05-07T07:12:35;3.20;;;1.70;;
79124;SDS011;68527;39.470;-0.376;2023-05-07T07:15:00;3.30;;;1.60;;
79124;SDS011;68527;39.470;-0.376;2023-05-07T07:17:27;3.90;;;2.10;;
79124;SDS011;68527;39.470;-0.376;2023-05-07T07:19:53;2.00;;;1.70;;
79124;SDS011;68527;39.470;-0.376;2023-05-07T07:24:44;3.50;;;1.50;;
79124;SDS011;68527;39.470;-0.376;2023-05-07T07:27:10;3.10;;;1.70;;
79124;SDS011;68527;39.470;-0.376;2023-05-07T07:32:00;4.80;;;3.20;;
79124;SDS011;68527;39.470;-0.376;2023-05-07T07:34:26;5.30;;;3.90;;
79124;SDS011;68527;39.470;-0.376;2023-05-07T07:39:17;6.50;;;3.30;;
79124;SDS011;68527;39.470;-0.376;2023-05-07T07:41:43;4.30;;;3.60;;
79124;SDS011;68527;39.470;-0.376;2023-05-07T07:44:08;3.50;;;2.60;;
79124;SDS011;68527;39.470;-0.376;2023-05-07T07:46:37;4.90;;;3.10;;
79124;SDS011;68527;39.470;-0.376;2023-05-07T07:49:03;3.70;;;2.90;;
79124;SDS011;68527;39.470;-0.376;2023-05-07T07:51:29;4.10;;;3.10;;
79124;SDS011;68527;39.470;-0.376;2023-05-07T07:53:55;3.50;;;3.00;;
79124;SDS011;68527;39.470;-0.376;2023-05-07T07:56:23;5.80;;;2.80;;
79124;SDS011;68527;39.470;-0.376;2023-05-07T07:58:49;5.10;;;3.10;;
79124;SDS011;68527;39.470;-0.376;2023-05-07T08:01:14;4.20;;;3.10;;
79124;SDS011;68527;39.470;-0.376;2023-05-07T08:03:41;4.70;;;3.20;;
79124;SDS011;68527;39.470;-0.376;2023-05-07T08:06:08;3.80;;;2.90;;
79124;SDS011;68527;39.470;-0.376;2023-05-07T08:08:33;5.10;;;3.30;;
79124;SDS011;68527;39.470;-0.376;2023-05-07T08:10:59;4.30;;;3.00;;
79124;SDS011;68527;39.470;-0.376;2023-05-07T08:13:25;3.80;;;2.80;;
79124;SDS011;68527;39.470;-0.376;2023-05-07T08:18:16;5.70;;;2.40;;
79124;SDS011;68527;39.470;-0.376;2023-05-07T08:20:41;3.90;;;2.70;;
79124;SDS011;68527;39.470;-0.376;2023-05-07T08:23:07;4.80;;;3.20;;
79124;SDS011;68527;39.470;-0.376;2023-05-07T08:25:33;4.90;;;2.50;;
79124;SDS011;68527;39.470;-0.376;2023-05-07T08:27:59;4.10;;;2.90;;
79124;SDS011;68527;39.470;-0.376;2023-05-07T08:30:25;3.40;;;2.50;;
79124;SDS011;68527;39.470;-0.376;2023-05-07T08:32:51;3.60;;;2.50;;
79124;SDS011;68527;39.470;-0.376;2023-05-07T08:37:42;4.50;;;2.10;;
79124;SDS011;68527;39.470;-0.376;2023-05-07T08:40:07;3.20;;;2.50;;
79124;SDS011;68527;39.470;-0.376;2023-05-07T08:42:35;2.60;;;2.20;;
79124;SDS011;68527;39.470;-0.376;2023-05-07T08:45:02;3.40;;;2.60;;
79124;SDS011;68527;39.470;-0.376;2023-05-07T08:47:34;3.30;;;1.80;;
79124;SDS011;68527;39.470;-0.376;2023-05-07T08:50:04;2.60;;;2.30;;
79124;SDS011;68527;39.470;-0.376;2023-05-07T08:52:30;6.70;;;2.10;;
79124;SDS011;68527;39.470;-0.376;2023-05-07T08:54:56;5.80;;;2.30;;
79124;SDS011;68527;39.470;-0.376;2023-05-07T08:57:22;3.50;;;2.40;;
79124;SDS011;68527;39.470;-0.376;2023-05-07T08:59:49;2.90;;;2.00;;
79124;SDS011;68527;39.470;-0.376;2023-05-07T09:02:15;3.80;;;2.50;;
79124;SDS011;68527;39.470;-0.376;2023-05-07T09:04:41;5.30;;;2.30;;
79124;SDS011;68527;39.470;-0.376;2023-05-07T09:07:07;3.00;;;1.80;;
79124;SDS011;68527;39.470;-0.376;2023-05-07T09:09:32;2.90;;;1.90;;
79124;SDS011;68527;39.470;-0.376;2023-05-07T09:11:59;4.90;;;2.00;;
79124;SDS011;68527;39.470;-0.376;2023-05-07T09:14:25;3.00;;;2.20;;
79124;SDS011;68527;39.470;-0.376;2023-05-07T09:16:53;2.80;;;2.00;;
79124;SDS011;68527;39.470;-0.376;2023-05-07T09:19:22;6.00;;;1.90;;
79124;SDS011;68527;39.470;-0.376;2023-05-07T09:21:49;3.20;;;2.10;;
79124;SDS011;68527;39.470;-0.376;2023-05-07T09:24:15;2.70;;;1.90;;
79124;SDS011;68527;39.470;-0.376;2023-05-07T09:26:41;2.90;;;2.20;;
79124;SDS011;68527;39.470;-0.376;2023-05-07T09:29:08;4.10;;;2.10;;
79124;SDS011;68527;39.470;-0.376;2023-05-07T09:31:38;3.70;;;2.20;;
79124;SDS011;68527;39.470;-0.376;2023-05-07T09:34:04;3.20;;;1.70;;
79124;SDS011;68527;39.470;-0.376;2023-05-07T09:36:31;3.30;;;1.80;;
79124;SDS011;68527;39.470;-0.376;2023-05-07T09:39:01;3.90;;;2.00;;
79124;SDS011;68527;39.470;-0.376;2023-05-07T09:41:26;3.60;;;1.80;;
79124;SDS011;68527;39.470;-0.376;2023-05-07T09:43:54;2.60;;;1.80;;
79124;SDS011;68527;39.470;-0.376;2023-05-07T09:46:20;5.30;;;1.90;;
79124;SDS011;68527;39.470;-0.376;2023-05-07T09:48:50;5.50;;;2.00;;
79124;SDS011;68527;39.470;-0.376;2023-05-07T09:51:21;4.10;;;2.00;;
79124;SDS011;68527;39.470;-0.376;2023-05-07T09:53:52;4.90;;;2.00;;
79124;SDS011;68527;39.470;-0.376;2023-05-07T09:56:18;2.90;;;1.90;;
79124;SDS011;68527;39.470;-0.376;2023-05-07T09:58:45;3.90;;;1.80;;
79124;SDS011;68527;39.470;-0.376;2023-05-07T10:01:12;3.50;;;2.00;;
79124;SDS011;68527;39.470;-0.376;2023-05-07T10:03:39;4.20;;;1.80;;
79124;SDS011;68527;39.470;-0.376;2023-05-07T10:06:08;4.40;;;2.00;;
79124;SDS011;68527;39.470;-0.376;2023-05-07T10:08:35;2.90;;;2.10;;
79124;SDS011;68527;39.470;-0.376;2023-05-07T10:11:01;4.20;;;2.10;;
79124;SDS011;68527;39.470;-0.376;2023-05-07T10:13:27;3.70;;;1.40;;
79124;SDS011;68527;39.470;-0.376;2023-05-07T10:15:53;3.80;;;1.70;;
79124;SDS011;68527;39.470;-0.376;2023-05-07T10:18:19;4.60;;;1.60;;
79124;SDS011;68527;39.470;-0.376;2023-05-07T10:20:48;4.10;;;1.40;;
79124;SDS011;68527;39.470;-0.376;2023-05-07T10:23:16;3.70;;;2.00;;
79124;SDS011;68527;39.470;-0.376;2023-05-07T10:25:44;2.60;;;1.80;;
79124;SDS011;68527;39.470;-0.376;2023-05-07T10:28:10;5.70;;;2.20;;
79124;SDS011;68527;39.470;-0.376;2023-05-07T10:33:27;5.80;;;2.60;;
79124;SDS011;68527;39.470;-0.376;2023-05-07T10:35:58;9.40;;;2.30;;
79124;SDS011;68527;39.470;-0.376;2023-05-07T10:38:26;6.60;;;2.50;;
79124;SDS011;68527;39.470;-0.376;2023-05-07T10:40:52;3.60;;;2.00;;
79124;SDS011;68527;39.470;-0.376;2023-05-07T10:43:18;4.20;;;2.10;;
79124;SDS011;68527;39.470;-0.376;2023-05-07T10:45:44;5.80;;;2.20;;
79124;SDS011;68527;39.470;-0.376;2023-05-07T10:49:16;3.20;;;1.60;;
79124;SDS011;68527;39.470;-0.376;2023-05-07T10:51:36;4.10;;;2.50;;
79124;SDS011;68527;39.470;-0.376;2023-05-07T11:02:00;7.40;;;2.60;;
79124;SDS011;68527;39.470;-0.376;2023-05-07T11:04:31;7.80;;;3.10;;
79124;SDS011;68527;39.470;-0.376;2023-05-07T11:15:06;5.60;;;2.40;;
79124;SDS011;68527;39.470;-0.376;2023-05-07T11:17:33;6.50;;;2.40;;
79124;SDS011;68527;39.470;-0.376;2023-05-07T11:20:01;5.20;;;2.70;;
79124;SDS011;68527;39.470;-0.376;2023-05-07T11:24:56;5.00;;;2.40;;
79124;SDS011;68527;39.470;-0.376;2023-05-07T11:27:24;4.20;;;2.00;;
79124;SDS011;68527;39.470;-0.376;2023-05-07T11:29:50;5.30;;;2.20;;
79124;SDS011;68527;39.470;-0.376;2023-05-07T11:32:15;3.90;;;2.40;;
79124;SDS011;68527;39.470;-0.376;2023-05-07T11:34:50;5.70;;;2.20;;
79124;SDS011;68527;39.470;-0.376;2023-05-07T11:37:17;3.70;;;2.30;;
79124;SDS011;68527;39.470;-0.376;2023-05-07T11:39:43;4.10;;;2.00;;
79124;SDS011;68527;39.470;-0.376;2023-05-07T11:44:53;4.00;;;2.40;;
79124;SDS011;68527;39.470;-0.376;2023-05-07T11:47:19;3.40;;;2.20;;
79124;SDS011;68527;39.470;-0.376;2023-05-07T11:49:49;5.20;;;2.20;;
79124;SDS011;68527;39.470;-0.376;2023-05-07T11:52:16;3.00;;;2.10;;
79124;SDS011;68527;39.470;-0.376;2023-05-07T11:54:48;4.30;;;2.20;;
79124;SDS011;68527;39.470;-0.376;2023-05-07T11:57:22;4.80;;;2.20;;
79124;SDS011;68527;39.470;-0.376;2023-05-07T11:59:52;4.20;;;2.30;;
79124;SDS011;68527;39.470;-0.376;2023-05-07T12:02:21;3.80;;;2.00;;
79124;SDS011;68527;39.470;-0.376;2023-05-07T12:04:47;5.50;;;2.60;;
79124;SDS011;68527;39.470;-0.376;2023-05-07T12:07:15;3.40;;;1.90;;
79124;SDS011;68527;39.470;-0.376;2023-05-07T12:09:41;3.70;;;2.40;;
79124;SDS011;68527;39.470;-0.376;2023-05-07T12:12:07;3.40;;;2.20;;
79124;SDS011;68527;39.470;-0.376;2023-05-07T12:14:37;4.00;;;2.00;;
79124;SDS011;68527;39.470;-0.376;2023-05-07T12:17:13;3.00;;;2.10;;
79124;SDS011;68527;39.470;-0.376;2023-05-07T12:19:39;4.30;;;2.50;;
79124;SDS011;68527;39.470;-0.376;2023-05-07T12:22:09;4.30;;;2.40;;
79124;SDS011;68527;39.470;-0.376;2023-05-07T12:24:49;3.50;;;2.30;;
79124;SDS011;68527;39.470;-0.376;2023-05-07T12:27:21;5.10;;;2.20;;
79124;SDS011;68527;39.470;-0.376;2023-05-07T12:29:47;3.80;;;2.20;;
79124;SDS011;68527;39.470;-0.376;2023-05-07T12:32:14;3.50;;;2.30;;
79124;SDS011;68527;39.470;-0.376;2023-05-07T12:34:44;4.20;;;2.10;;
79124;SDS011;68527;39.470;-0.376;2023-05-07T12:37:10;3.80;;;2.50;;
79124;SDS011;68527;39.470;-0.376;2023-05-07T12:39:35;4.10;;;2.40;;
79124;SDS011;68527;39.470;-0.376;2023-05-07T12:42:01;4.90;;;2.80;;
79124;SDS011;68527;39.470;-0.376;2023-05-07T12:44:30;4.00;;;2.50;;
79124;SDS011;68527;39.470;-0.376;2023-05-07T12:46:57;3.80;;;2.30;;
79124;SDS011;68527;39.470;-0.376;2023-05-07T12:49:23;3.90;;;2.30;;
79124;SDS011;68527;39.470;-0.376;2023-05-07T12:51:50;3.80;;;2.40;;
79124;SDS011;68527;39.470;-0.376;2023-05-07T12:54:34;3.70;;;2.70;;
79124;SDS011;68527;39.470;-0.376;2023-05-07T12:59:46;3.20;;;2.40;;
79124;SDS011;68527;39.470;-0.376;2023-05-07T13:02:12;3.70;;;2.20;;
79124;SDS011;68527;39.470;-0.376;2023-05-07T13:04:38;3.60;;;2.40;;
79124;SDS011;68527;39.470;-0.376;2023-05-07T13:07:03;3.30;;;2.50;;
79124;SDS011;68527;39.470;-0.376;2023-05-07T13:09:29;4.00;;;2.30;;
79124;SDS011;68527;39.470;-0.376;2023-05-07T13:11:56;7.20;;;2.30;;
79124;SDS011;68527;39.470;-0.376;2023-05-07T13:14:25;3.60;;;2.20;;
79124;SDS011;68527;39.470;-0.376;2023-05-07T13:16:50;3.70;;;2.30;;
79124;SDS011;68527;39.470;-0.376;2023-05-07T13:19:16;5.70;;;2.80;;
79124;SDS011;68527;39.470;-0.376;2023-05-07T13:21:42;5.60;;;2.80;;
79124;SDS011;68527;39.470;-0.376;2023-05-07T13:24:08;4.30;;;2.60;;
79124;SDS011;68527;39.470;-0.376;2023-05-07T13:26:34;4.30;;;2.50;;
79124;SDS011;68527;39.470;-0.376;2023-05-07T13:28:59;4.60;;;2.50;;
79124;SDS011;68527;39.470;-0.376;2023-05-07T13:31:25;4.60;;;2.30;;
79124;SDS011;68527;39.470;-0.376;2023-05-07T13:33:50;5.10;;;2.70;;
79124;SDS011;68527;39.470;-0.376;2023-05-07T13:36:17;4.40;;;2.30;;
79124;SDS011;68527;39.470;-0.376;2023-05-07T13:38:43;4.20;;;2.10;;
79124;SDS011;68527;39.470;-0.376;2023-05-07T13:41:08;3.60;;;2.40;;
79124;SDS011;68527;39.470;-0.376;2023-05-07T13:43:34;3.80;;;2.60;;
79124;SDS011;68527;39.470;-0.376;2023-05-07T13:46:00;3.40;;;2.50;;
79124;SDS011;68527;39.470;-0.376;2023-05-07T13:48:26;3.10;;;2.10;;
79124;SDS011;68527;39.470;-0.376;2023-05-07T13:50:51;4.20;;;2.80;;
79124;SDS011;68527;39.470;-0.376;2023-05-07T13:53:17;2.70;;;2.10;;
79124;SDS011;68527;39.470;-0.376;2023-05-07T13:55:43;3.50;;;2.10;;
79124;SDS011;68527;39.470;-0.376;2023-05-07T13:58:10;3.80;;;2.50;;
79124;SDS011;68527;39.470;-0.376;2023-05-07T14:00:36;2.90;;;2.10;;
79124;SDS011;68527;39.470;-0.376;2023-05-07T14:03:02;3.80;;;2.60;;
79124;SDS011;68527;39.470;-0.376;2023-05-07T14:05:29;4.20;;;2.60;;
79124;SDS011;68527;39.470;-0.376;2023-05-07T14:07:56;4.20;;;2.30;;
79124;SDS011;68527;39.470;-0.376;2023-05-07T14:10:22;3.90;;;2.50;;
79124;SDS011;68527;39.470;-0.376;2023-05-07T14:12:48;5.40;;;2.60;;
79124;SDS011;68527;39.470;-0.376;2023-05-07T14:15:14;3.90;;;2.20;;
79124;SDS011;68527;39.470;-0.376;2023-05-07T14:17:39;4.70;;;2.30;;
79124;SDS011;68527;39.470;-0.376;2023-05-07T14:20:06;4.20;;;2.30;;
79124;SDS011;68527;39.470;-0.376;2023-05-07T14:22:32;4.60;;;2.50;;
79124;SDS011;68527;39.470;-0.376;2023-05-07T14:24:57;3.90;;;2.30;;
79124;SDS011;68527;39.470;-0.376;2023-05-07T14:27:23;4.50;;;2.00;;
79124;SDS011;68527;39.470;-0.376;2023-05-07T14:29:49;4.20;;;2.10;;
79124;SDS011;68527;39.470;-0.376;2023-05-07T14:32:19;3.00;;;2.00;;
79124;SDS011;68527;39.470;-0.376;2023-05-07T14:34:45;4.00;;;2.50;;
79124;SDS011;68527;39.470;-0.376;2023-05-07T14:37:11;4.60;;;2.30;;
79124;SDS011;68527;39.470;-0.376;2023-05-07T14:39:37;4.20;;;2.10;;
79124;SDS011;68527;39.470;-0.376;2023-05-07T14:42:03;3.60;;;2.20;;
79124;SDS011;68527;39.470;-0.376;2023-05-07T14:44:28;3.90;;;1.90;;
79124;SDS011;68527;39.470;-0.376;2023-05-07T14:46:54;4.90;;;2.20;;
79124;SDS011;68527;39.470;-0.376;2023-05-07T14:49:20;4.90;;;2.50;;
79124;SDS011;68527;39.470;-0.376;2023-05-07T14:51:46;4.20;;;2.00;;
79124;SDS011;68527;39.470;-0.376;2023-05-07T14:54:12;3.60;;;2.00;;
79124;SDS011;68527;39.470;-0.376;2023-05-07T14:56:38;2.70;;;2.00;;
79124;SDS011;68527;39.470;-0.376;2023-05-07T14:59:04;3.10;;;1.90;;
79124;SDS011;68527;39.470;-0.376;2023-05-07T15:01:30;3.00;;;2.00;;
79124;SDS011;68527;39.470;-0.376;2023-05-07T15:03:55;3.40;;;2.30;;
79124;SDS011;68527;39.470;-0.376;2023-05-07T15:06:21;4.10;;;2.00;;
79124;SDS011;68527;39.470;-0.376;2023-05-07T15:08:47;3.60;;;2.20;;
79124;SDS011;68527;39.470;-0.376;2023-05-07T15:11:15;4.00;;;2.30;;
79124;SDS011;68527;39.470;-0.376;2023-05-07T15:13:44;3.50;;;1.70;;
79124;SDS011;68527;39.470;-0.376;2023-05-07T15:16:10;4.10;;;2.10;;
79124;SDS011;68527;39.470;-0.376;2023-05-07T15:18:35;4.30;;;2.10;;
79124;SDS011;68527;39.470;-0.376;2023-05-07T15:21:01;4.10;;;2.50;;
79124;SDS011;68527;39.470;-0.376;2023-05-07T15:23:27;4.40;;;2.10;;
79124;SDS011;68527;39.470;-0.376;2023-05-07T15:25:52;4.70;;;2.50;;
79124;SDS011;68527;39.470;-0.376;2023-05-07T15:28:18;5.80;;;2.30;;
79124;SDS011;68527;39.470;-0.376;2023-05-07T15:30:44;4.90;;;2.20;;
79124;SDS011;68527;39.470;-0.376;2023-05-07T15:33:10;7.10;;;2.00;;
79124;SDS011;68527;39.470;-0.376;2023-05-07T15:35:36;3.80;;;2.00;;
79124;SDS011;68527;39.470;-0.376;2023-05-07T15:38:02;3.70;;;2.60;;
79124;SDS011;68527;39.470;-0.376;2023-05-07T15:40:28;6.70;;;2.70;;
79124;SDS011;68527;39.470;-0.376;2023-05-07T15:42:54;4.70;;;2.10;;
79124;SDS011;68527;39.470;-0.376;2023-05-07T15:45:20;8.20;;;2.10;;
79124;SDS011;68527;39.470;-0.376;2023-05-07T15:47:46;5.30;;;2.00;;
79124;SDS011;68527;39.470;-0.376;2023-05-07T15:50:12;5.10;;;2.10;;
79124;SDS011;68527;39.470;-0.376;2023-05-07T15:52:37;4.30;;;1.90;;
79124;SDS011;68527;39.470;-0.376;2023-05-07T15:55:04;6.60;;;2.40;;
79124;SDS011;68527;39.470;-0.376;2023-05-07T15:57:31;5.70;;;2.10;;
79124;SDS011;68527;39.470;-0.376;2023-05-07T15:59:57;4.80;;;2.30;;
79124;SDS011;68527;39.470;-0.376;2023-05-07T16:02:23;6.70;;;2.20;;
79124;SDS011;68527;39.470;-0.376;2023-05-07T16:04:48;6.00;;;2.50;;
79124;SDS011;68527;39.470;-0.376;2023-05-07T16:07:14;3.10;;;1.80;;
79124;SDS011;68527;39.470;-0.376;2023-05-07T16:09:39;6.80;;;2.20;;
79124;SDS011;68527;39.470;-0.376;2023-05-07T16:12:05;5.80;;;2.10;;
79124;SDS011;68527;39.470;-0.376;2023-05-07T16:14:31;4.20;;;2.30;;
79124;SDS011;68527;39.470;-0.376;2023-05-07T16:16:57;4.40;;;2.10;;
79124;SDS011;68527;39.470;-0.376;2023-05-07T16:19:22;4.60;;;2.10;;
79124;SDS011;68527;39.470;-0.376;2023-05-07T16:21:48;7.60;;;2.30;;